createdAt,value
2022-08-23T00:00:13.067Z,20.90
2022-08-23T00:01:09.034Z,20.92
2022-08-23T00:02:05.986Z,20.90
2022-08-23T00:03:05.996Z,20.88
2022-08-23T00:04:05.986Z,20.87
2022-08-23T00:05:08.867Z,20.87
2022-08-23T00:06:05.926Z,20.85
2022-08-23T00:07:05.937Z,20.87
2022-08-23T00:08:05.904Z,20.84
2022-08-23T00:09:05.888Z,20.84
2022-08-23T00:10:05.873Z,20.82
2022-08-23T00:11:05.862Z,20.84
2022-08-23T00:12:06.054Z,20.81
2022-08-23T00:13:05.855Z,20.80
2022-08-23T00:14:05.826Z,20.80
2022-08-23T00:15:05.802Z,20.77
2022-08-23T00:16:05.802Z,20.77
2022-08-23T00:17:05.783Z,20.77
2022-08-23T00:18:05.804Z,20.77
2022-08-23T00:19:05.754Z,20.77
2022-08-23T00:20:08.739Z,20.77
2022-08-23T00:21:08.741Z,20.78
2022-08-23T00:22:05.906Z,20.75
2022-08-23T00:23:05.696Z,20.77
2022-08-23T00:24:05.714Z,20.75
2022-08-23T00:25:05.677Z,20.74
2022-08-23T00:26:05.647Z,20.74
2022-08-23T00:27:05.647Z,20.75
2022-08-23T00:28:05.628Z,20.74
2022-08-23T00:29:06.679Z,20.74
2022-08-23T00:30:05.620Z,20.72
2022-08-23T00:31:05.580Z,20.72
2022-08-23T00:32:05.572Z,20.69
2022-08-23T00:33:05.560Z,20.69
2022-08-23T00:34:05.541Z,20.69
2022-08-23T00:35:05.591Z,20.69
2022-08-23T00:36:05.521Z,20.70
2022-08-23T00:37:05.512Z,20.69
2022-08-23T00:38:32.591Z,20.67
2022-08-23T00:39:06.472Z,20.67
2022-08-23T00:40:08.556Z,20.70
2022-08-23T00:41:08.486Z,20.69
2022-08-23T00:42:05.445Z,20.67
2022-08-23T00:43:06.011Z,20.70
2022-08-23T00:44:05.405Z,20.70
2022-08-23T00:45:05.398Z,20.69
2022-08-23T00:46:05.386Z,20.72
2022-08-23T00:47:05.396Z,20.70
2022-08-23T00:48:05.366Z,20.69
2022-08-23T00:49:05.337Z,20.70
2022-08-23T00:50:05.337Z,20.70
2022-08-23T00:51:06.310Z,20.69
2022-08-23T00:52:05.330Z,20.69
2022-08-23T00:53:05.290Z,20.66
2022-08-23T00:54:05.283Z,20.67
2022-08-23T00:55:05.261Z,20.66
2022-08-23T00:56:05.254Z,20.65
2022-08-23T00:57:05.262Z,20.67
2022-08-23T00:58:05.216Z,20.67
2022-08-23T00:59:05.206Z,20.65
2022-08-23T01:00:08.208Z,20.66
2022-08-23T01:01:08.185Z,20.65
2022-08-23T01:02:05.262Z,20.65
2022-08-23T01:03:05.155Z,20.65
2022-08-23T01:04:05.348Z,20.66
2022-08-23T01:05:05.114Z,20.66
2022-08-23T01:06:05.156Z,20.65
2022-08-23T01:07:05.099Z,20.65
2022-08-23T01:08:05.105Z,20.63
2022-08-23T01:09:05.079Z,20.63
2022-08-23T01:10:05.056Z,20.63
2022-08-23T01:11:08.697Z,20.63
2022-08-23T01:12:05.059Z,20.63
2022-08-23T01:13:05.008Z,20.60
2022-08-23T01:14:04.999Z,20.62
2022-08-23T01:15:04.993Z,20.62
2022-08-23T01:16:04.979Z,20.60
2022-08-23T01:17:05.011Z,20.62
2022-08-23T01:18:04.947Z,20.62
2022-08-23T01:19:04.924Z,20.59
2022-08-23T01:20:07.924Z,20.58
2022-08-23T01:21:10.364Z,20.59
2022-08-23T01:22:04.887Z,20.56
2022-08-23T01:23:04.926Z,20.55
2022-08-23T01:24:04.865Z,20.55
2022-08-23T01:25:08.555Z,20.51
2022-08-23T01:26:04.828Z,20.51
2022-08-23T01:27:04.819Z,20.50
2022-08-23T01:28:04.808Z,20.48
2022-08-23T01:29:04.816Z,20.47
2022-08-23T01:30:04.792Z,20.47
2022-08-23T01:31:06.552Z,20.44
2022-08-23T01:32:04.760Z,20.47
2022-08-23T01:33:04.730Z,20.44
2022-08-23T01:34:04.750Z,20.43
2022-08-23T01:35:04.711Z,20.43
2022-08-23T01:36:04.723Z,20.44
2022-08-23T01:37:05.684Z,20.41
2022-08-23T01:38:04.669Z,20.39
2022-08-23T01:39:04.653Z,20.36
2022-08-23T01:40:07.694Z,20.36
2022-08-23T01:41:07.695Z,20.37
2022-08-23T01:42:07.460Z,20.34
2022-08-23T01:43:04.611Z,20.32
2022-08-23T01:44:04.586Z,20.29
2022-08-23T01:45:04.566Z,20.25
2022-08-23T01:46:04.566Z,20.21
2022-08-23T01:47:04.579Z,20.21
2022-08-23T01:48:04.538Z,20.18
2022-08-23T01:49:08.035Z,20.13
2022-08-23T01:50:04.522Z,20.11
2022-08-23T01:51:04.490Z,20.10
2022-08-23T01:52:04.530Z,20.04
2022-08-23T01:53:04.509Z,20.03
2022-08-23T01:54:04.461Z,20.00
2022-08-23T01:55:04.431Z,19.96
2022-08-23T01:56:04.427Z,19.94
2022-08-23T01:57:04.404Z,19.92
2022-08-23T01:58:04.464Z,19.89
2022-08-23T01:59:04.374Z,19.88
2022-08-23T02:00:07.372Z,19.85
2022-08-23T02:01:07.364Z,19.85
2022-08-23T02:02:04.411Z,19.81
2022-08-23T02:03:04.324Z,19.81
2022-08-23T02:04:05.201Z,19.76
2022-08-23T02:05:04.301Z,19.76
2022-08-23T02:06:04.321Z,19.73
2022-08-23T02:07:04.276Z,19.67
2022-08-23T02:08:04.268Z,19.66
2022-08-23T02:09:04.238Z,19.64
2022-08-23T02:10:04.270Z,19.59
2022-08-23T02:11:04.241Z,19.56
2022-08-23T02:12:04.201Z,19.54
2022-08-23T02:13:04.180Z,19.51
2022-08-23T02:14:04.229Z,19.49
2022-08-23T02:15:04.165Z,19.45
2022-08-23T02:16:04.161Z,19.44
2022-08-23T02:17:05.075Z,19.40
2022-08-23T02:18:04.134Z,19.36
2022-08-23T02:19:04.105Z,19.36
2022-08-23T02:20:07.131Z,19.34
2022-08-23T02:22:04.076Z,19.31
2022-08-23T02:23:04.057Z,19.29
2022-08-23T02:24:04.056Z,19.29
2022-08-23T02:25:04.036Z,19.26
2022-08-23T02:26:04.079Z,19.26
2022-08-23T02:27:04.004Z,19.24
2022-08-23T02:28:03.989Z,19.22
2022-08-23T02:29:03.974Z,19.22
2022-08-23T02:30:03.969Z,19.21
2022-08-23T02:31:03.948Z,19.19
2022-08-23T02:32:03.958Z,19.19
2022-08-23T02:33:05.011Z,19.19
2022-08-23T02:34:03.910Z,19.18
2022-08-23T02:35:05.156Z,19.18
2022-08-23T02:36:03.908Z,19.16
2022-08-23T02:37:03.860Z,19.15
2022-08-23T02:38:03.855Z,19.11
2022-08-23T02:39:03.890Z,19.08
2022-08-23T02:40:06.928Z,19.07
2022-08-23T02:41:06.822Z,19.04
2022-08-23T02:42:03.793Z,19.00
2022-08-23T02:43:03.777Z,18.96
2022-08-23T02:44:03.771Z,18.93
2022-08-23T02:45:03.784Z,18.92
2022-08-23T02:46:03.736Z,18.90
2022-08-23T02:47:03.743Z,18.88
2022-08-23T02:48:03.695Z,18.89
2022-08-23T02:49:03.696Z,18.86
2022-08-23T02:50:03.687Z,18.84
2022-08-23T02:51:03.714Z,18.84
2022-08-23T02:52:03.649Z,18.84
2022-08-23T02:53:03.640Z,18.84
2022-08-23T02:54:03.618Z,18.86
2022-08-23T02:55:03.614Z,18.86
2022-08-23T02:56:03.599Z,18.86
2022-08-23T02:57:03.661Z,18.84
2022-08-23T02:58:03.572Z,18.83
2022-08-23T02:59:03.549Z,18.83
2022-08-23T03:00:06.540Z,18.81
2022-08-23T03:01:06.543Z,18.83
2022-08-23T03:02:04.525Z,18.80
2022-08-23T03:03:03.533Z,18.77
2022-08-23T03:04:03.484Z,18.75
2022-08-23T03:05:03.466Z,18.73
2022-08-23T03:06:24.044Z,18.71
2022-08-23T03:07:05.409Z,18.70
2022-08-23T03:08:03.485Z,18.68
2022-08-23T03:09:03.407Z,18.65
2022-08-23T03:10:03.407Z,18.65
2022-08-23T03:11:09.765Z,18.65
2022-08-23T03:12:05.829Z,18.62
2022-08-23T03:13:03.349Z,18.60
2022-08-23T03:14:03.369Z,18.59
2022-08-23T03:15:03.328Z,18.58
2022-08-23T03:16:03.319Z,18.56
2022-08-23T03:17:04.057Z,18.53
2022-08-23T03:18:03.300Z,18.52
2022-08-23T03:19:03.269Z,18.52
2022-08-23T03:20:06.310Z,18.49
2022-08-23T03:21:06.252Z,18.50
2022-08-23T03:22:04.693Z,18.45
2022-08-23T03:23:03.202Z,18.45
2022-08-23T03:24:06.842Z,18.44
2022-08-23T03:25:04.182Z,18.44
2022-08-23T03:26:03.193Z,18.43
2022-08-23T03:27:03.903Z,18.43
2022-08-23T03:28:03.154Z,18.43
2022-08-23T03:29:03.114Z,18.41
2022-08-23T03:30:03.111Z,18.41
2022-08-23T03:31:03.122Z,18.40
2022-08-23T03:32:03.188Z,18.38
2022-08-23T03:33:03.089Z,18.38
2022-08-23T03:34:03.059Z,18.35
2022-08-23T03:35:03.039Z,18.35
2022-08-23T03:36:03.036Z,18.35
2022-08-23T03:37:03.759Z,18.34
2022-08-23T03:38:03.241Z,18.34
2022-08-23T03:39:02.971Z,18.34
2022-08-23T03:40:06.005Z,18.34
2022-08-23T03:41:05.962Z,18.38
2022-08-23T03:42:03.692Z,18.34
2022-08-23T03:43:02.943Z,18.34
2022-08-23T03:44:02.940Z,18.34
2022-08-23T03:45:02.970Z,18.34
2022-08-23T03:46:02.906Z,18.34
2022-08-23T03:47:02.881Z,18.31
2022-08-23T03:48:02.875Z,18.34
2022-08-23T03:49:02.846Z,18.33
2022-08-23T03:50:02.868Z,18.34
2022-08-23T03:51:02.817Z,18.34
2022-08-23T03:52:02.816Z,18.33
2022-08-23T03:53:02.818Z,18.34
2022-08-23T03:54:02.768Z,18.33
2022-08-23T03:55:02.805Z,18.33
2022-08-23T03:56:02.748Z,18.33
2022-08-23T03:57:02.756Z,18.33
2022-08-23T03:58:02.822Z,18.31
2022-08-23T03:59:02.722Z,18.31
2022-08-23T04:00:05.720Z,18.29
2022-08-23T04:01:05.693Z,18.31
2022-08-23T04:02:03.506Z,18.28
2022-08-23T04:03:02.658Z,18.25
2022-08-23T04:04:02.634Z,18.23
2022-08-23T04:05:02.643Z,18.25
2022-08-23T04:06:02.610Z,18.23
2022-08-23T04:07:03.335Z,18.23
2022-08-23T04:08:02.721Z,18.23
2022-08-23T04:09:02.555Z,18.25
2022-08-23T04:10:02.567Z,18.25
2022-08-23T04:11:02.567Z,18.26
2022-08-23T04:12:02.518Z,18.26
2022-08-23T04:13:02.539Z,18.26
2022-08-23T04:14:02.497Z,18.25
2022-08-23T04:15:02.869Z,18.25
2022-08-23T04:16:02.473Z,18.26
2022-08-23T04:17:02.460Z,18.26
2022-08-23T04:18:02.717Z,18.28
2022-08-23T04:19:02.482Z,18.25
2022-08-23T04:20:05.438Z,18.28
2022-08-23T04:21:05.426Z,18.29
2022-08-23T04:22:02.410Z,18.28
2022-08-23T04:23:02.372Z,18.28
2022-08-23T04:24:02.373Z,18.29
2022-08-23T04:25:02.404Z,18.26
2022-08-23T04:26:02.345Z,18.29
2022-08-23T04:27:02.325Z,18.29
2022-08-23T04:28:02.725Z,18.33
2022-08-23T04:29:02.292Z,18.33
2022-08-23T04:30:02.296Z,18.34
2022-08-23T04:31:02.324Z,18.38
2022-08-23T04:32:02.253Z,18.37
2022-08-23T04:33:02.262Z,18.38
2022-08-23T04:34:02.226Z,18.40
2022-08-23T04:35:02.208Z,18.43
2022-08-23T04:36:02.200Z,18.41
2022-08-23T04:37:02.229Z,18.43
2022-08-23T04:38:02.406Z,18.44
2022-08-23T04:39:02.188Z,18.45
2022-08-23T04:40:05.273Z,18.45
2022-08-23T04:41:12.663Z,18.50
2022-08-23T04:42:02.113Z,18.52
2022-08-23T04:43:02.124Z,18.52
2022-08-23T04:44:02.095Z,18.53
2022-08-23T04:45:02.065Z,18.55
2022-08-23T04:46:02.055Z,18.59
2022-08-23T04:47:02.044Z,18.71
2022-08-23T04:48:02.365Z,18.88
2022-08-23T04:49:02.015Z,19.08
2022-08-23T04:50:02.024Z,19.22
2022-08-23T04:51:01.997Z,19.37
2022-08-23T04:52:01.967Z,19.55
2022-08-23T04:53:01.987Z,19.70
2022-08-23T04:54:01.969Z,19.86
2022-08-23T04:55:02.021Z,20.02
2022-08-23T04:56:01.919Z,20.06
2022-08-23T04:57:01.891Z,19.91
2022-08-23T04:58:02.142Z,19.74
2022-08-23T04:59:01.870Z,19.55
2022-08-23T05:00:04.912Z,19.39
2022-08-23T05:01:04.941Z,19.34
2022-08-23T05:02:01.864Z,19.22
2022-08-23T05:03:01.822Z,19.21
2022-08-23T05:04:01.866Z,19.36
2022-08-23T05:05:01.793Z,19.44
2022-08-23T05:06:01.773Z,19.52
2022-08-23T05:07:01.754Z,19.51
2022-08-23T05:08:01.900Z,19.44
2022-08-23T05:09:01.726Z,19.37
2022-08-23T05:10:01.745Z,19.34
2022-08-23T05:11:01.715Z,19.27
2022-08-23T05:12:01.688Z,19.21
2022-08-23T05:13:01.674Z,19.15
2022-08-23T05:14:01.701Z,19.11
2022-08-23T05:15:01.654Z,19.09
2022-08-23T05:16:01.637Z,19.04
2022-08-23T05:17:01.620Z,19.02
2022-08-23T05:18:01.804Z,19.02
2022-08-23T05:19:01.620Z,19.02
2022-08-23T05:20:04.641Z,19.02
2022-08-23T05:21:04.599Z,19.07
2022-08-23T05:22:01.560Z,19.02
2022-08-23T05:23:01.539Z,19.07
2022-08-23T05:24:02.104Z,19.09
2022-08-23T05:25:01.513Z,19.11
2022-08-23T05:26:01.553Z,19.15
2022-08-23T05:27:01.484Z,19.16
2022-08-23T05:28:01.621Z,19.14
2022-08-23T05:29:01.463Z,19.15
2022-08-23T05:30:01.444Z,19.19
2022-08-23T05:31:02.175Z,19.21
2022-08-23T05:32:01.444Z,19.26
2022-08-23T05:33:01.422Z,19.29
2022-08-23T05:34:01.388Z,19.26
2022-08-23T05:35:01.385Z,19.30
2022-08-23T05:36:01.360Z,19.33
2022-08-23T05:37:01.381Z,19.31
2022-08-23T05:38:01.460Z,19.34
2022-08-23T05:39:01.330Z,19.40
2022-08-23T05:40:04.360Z,19.44
2022-08-23T05:41:05.319Z,19.47
2022-08-23T05:42:01.268Z,19.47
2022-08-23T05:43:01.327Z,19.47
2022-08-23T05:44:01.264Z,19.47
2022-08-23T05:45:01.230Z,19.48
2022-08-23T05:46:01.661Z,19.49
2022-08-23T05:47:01.201Z,19.49
2022-08-23T05:48:01.426Z,19.51
2022-08-23T05:49:01.219Z,19.52
2022-08-23T05:50:01.173Z,19.52
2022-08-23T05:51:01.212Z,19.55
2022-08-23T05:52:01.146Z,19.58
2022-08-23T05:53:01.118Z,19.56
2022-08-23T05:54:01.104Z,19.55
2022-08-23T05:55:01.097Z,19.58
2022-08-23T05:56:01.083Z,19.56
2022-08-23T05:57:01.086Z,19.55
2022-08-23T05:58:01.173Z,19.49
2022-08-23T05:59:01.047Z,19.58
2022-08-23T06:00:04.065Z,20.03
2022-08-23T06:01:04.048Z,20.37
2022-08-23T06:02:01.002Z,20.55
2022-08-23T06:03:00.981Z,20.40
2022-08-23T06:04:00.979Z,20.22
2022-08-23T06:05:00.954Z,20.06
2022-08-23T06:06:00.970Z,19.92
2022-08-23T06:07:00.937Z,19.92
2022-08-23T06:08:01.043Z,19.82
2022-08-23T06:09:00.911Z,19.85
2022-08-23T06:10:00.892Z,20.02
2022-08-23T06:11:00.911Z,20.07
2022-08-23T06:12:00.927Z,20.04
2022-08-23T06:13:00.852Z,20.07
2022-08-23T06:14:00.885Z,20.13
2022-08-23T06:15:00.822Z,20.16
2022-08-23T06:16:00.808Z,20.22
2022-08-23T06:17:01.858Z,20.26
2022-08-23T06:18:00.983Z,20.34
2022-08-23T06:19:00.767Z,20.36
2022-08-23T06:20:03.796Z,20.34
2022-08-23T06:21:03.764Z,20.36
2022-08-23T06:22:00.719Z,20.41
2022-08-23T06:23:00.737Z,20.60
2022-08-23T06:24:00.690Z,20.74
2022-08-23T06:25:00.679Z,20.87
2022-08-23T06:26:00.672Z,21.06
2022-08-23T06:27:00.650Z,21.21
2022-08-23T06:28:00.734Z,21.30
2022-08-23T06:29:00.677Z,21.45
2022-08-23T06:30:00.633Z,21.51
2022-08-23T06:31:00.733Z,21.55
2022-08-23T06:32:00.574Z,21.60
2022-08-23T06:33:00.576Z,21.58
2022-08-23T06:34:00.597Z,21.58
2022-08-23T06:35:33.198Z,21.58
2022-08-23T06:36:01.557Z,21.60
2022-08-23T06:37:00.515Z,21.54
2022-08-23T06:38:00.676Z,21.48
2022-08-23T06:39:00.495Z,21.46
2022-08-23T06:40:04.304Z,21.48
2022-08-23T06:41:03.479Z,21.50
2022-08-23T06:42:00.448Z,21.43
2022-08-23T06:43:00.431Z,21.37
2022-08-23T06:44:00.417Z,21.39
2022-08-23T06:45:00.408Z,21.54
2022-08-23T06:46:00.435Z,21.64
2022-08-23T06:47:00.413Z,21.75
2022-08-23T06:48:00.574Z,21.77
2022-08-23T06:49:00.381Z,21.82
2022-08-23T06:50:00.342Z,21.91
2022-08-23T06:51:00.332Z,21.92
2022-08-23T06:52:00.362Z,22.00
2022-08-23T06:53:00.303Z,22.15
2022-08-23T06:54:03.011Z,22.18
2022-08-23T06:55:00.272Z,22.30
2022-08-23T06:56:00.255Z,22.45
2022-08-23T06:57:00.254Z,22.53
2022-08-23T06:58:00.450Z,22.59
2022-08-23T06:59:00.218Z,22.68
2022-08-23T07:00:03.199Z,22.66
2022-08-23T07:01:03.218Z,22.65
2022-08-23T07:02:00.340Z,22.59
2022-08-23T07:03:00.564Z,22.59
2022-08-23T07:04:00.168Z,22.69
2022-08-23T07:05:00.136Z,22.72
2022-08-23T07:06:00.128Z,22.69
2022-08-23T07:07:00.101Z,22.69
2022-08-23T07:08:00.099Z,22.63
2022-08-23T07:09:00.101Z,22.60
2022-08-23T07:10:00.068Z,22.65
2022-08-23T07:11:00.051Z,22.57
2022-08-23T07:12:00.033Z,22.55
2022-08-23T07:13:00.266Z,22.55
2022-08-23T07:14:00.032Z,22.60
2022-08-23T07:14:59.994Z,22.57
2022-08-23T07:16:00.046Z,22.59
2022-08-23T07:16:59.973Z,22.62
2022-08-23T07:17:59.945Z,22.69
2022-08-23T07:18:59.965Z,22.76
2022-08-23T07:20:02.934Z,22.78
2022-08-23T07:21:02.929Z,22.88
2022-08-23T07:21:59.897Z,22.87
2022-08-23T07:23:00.141Z,22.80
2022-08-23T07:23:59.898Z,22.76
2022-08-23T07:24:59.859Z,22.76
2022-08-23T07:25:59.845Z,22.81
2022-08-23T07:26:59.869Z,22.91
2022-08-23T07:27:59.996Z,22.99
2022-08-23T07:28:59.799Z,23.00
2022-08-23T07:29:59.802Z,23.02
2022-08-23T07:30:59.788Z,23.08
2022-08-23T07:31:59.794Z,23.08
2022-08-23T07:32:59.924Z,23.06
2022-08-23T07:33:59.731Z,23.09
2022-08-23T07:34:59.734Z,23.18
2022-08-23T07:35:59.704Z,23.31
2022-08-23T07:36:59.693Z,23.47
2022-08-23T07:37:59.922Z,23.58
2022-08-23T07:38:59.676Z,23.56
2022-08-23T07:40:02.702Z,23.55
2022-08-23T07:41:02.656Z,23.58
2022-08-23T07:41:59.616Z,23.63
2022-08-23T07:42:59.854Z,23.73
2022-08-23T07:43:59.637Z,23.73
2022-08-23T07:44:59.593Z,23.71
2022-08-23T07:45:59.567Z,23.62
2022-08-23T07:47:00.668Z,23.51
2022-08-23T07:47:59.545Z,23.51
2022-08-23T07:48:59.529Z,23.56
2022-08-23T07:49:59.541Z,23.51
2022-08-23T07:51:01.279Z,23.54
2022-08-23T07:51:59.491Z,23.43
2022-08-23T07:52:59.472Z,23.39
2022-08-23T07:53:59.486Z,23.43
2022-08-23T07:54:59.500Z,23.39
2022-08-23T07:55:59.431Z,23.31
2022-08-23T07:56:59.425Z,23.25
2022-08-23T07:57:59.571Z,23.18
2022-08-23T07:58:59.394Z,23.21
2022-08-23T08:00:02.405Z,23.32
2022-08-23T08:01:02.387Z,23.40
2022-08-23T08:01:59.396Z,23.54
2022-08-23T08:02:59.377Z,23.63
2022-08-23T08:03:59.317Z,23.80
2022-08-23T08:04:59.337Z,23.86
2022-08-23T08:05:59.298Z,23.96
2022-08-23T08:07:18.142Z,24.05
2022-08-23T08:08:00.473Z,24.10
2022-08-23T08:08:59.273Z,24.16
2022-08-23T08:09:59.281Z,24.23
2022-08-23T08:10:59.240Z,24.26
2022-08-23T08:11:59.221Z,24.33
2022-08-23T08:12:59.212Z,24.36
2022-08-23T08:13:59.201Z,24.36
2022-08-23T08:14:59.181Z,24.45
2022-08-23T08:15:59.253Z,24.50
2022-08-23T08:16:59.166Z,24.54
2022-08-23T08:17:59.251Z,24.61
2022-08-23T08:18:59.133Z,24.65
2022-08-23T08:20:02.107Z,24.66
2022-08-23T08:21:02.115Z,24.70
2022-08-23T08:21:59.083Z,24.70
2022-08-23T08:23:00.547Z,24.74
2022-08-23T08:23:59.057Z,24.80
2022-08-23T08:24:59.036Z,24.80
2022-08-23T08:25:59.027Z,24.69
2022-08-23T08:26:59.015Z,24.73
2022-08-23T08:27:59.018Z,24.70
2022-08-23T08:28:59.009Z,24.78
2022-08-23T08:29:58.967Z,24.85
2022-08-23T08:30:59.045Z,24.93
2022-08-23T08:31:58.992Z,24.99
2022-08-23T08:32:59.050Z,25.07
2022-08-23T08:33:58.950Z,25.11
2022-08-23T08:34:58.981Z,25.21
2022-08-23T08:36:00.969Z,25.31
2022-08-23T08:37:01.456Z,25.40
2022-08-23T08:37:58.852Z,25.47
2022-08-23T08:39:00.845Z,25.53
2022-08-23T08:40:02.010Z,25.51
2022-08-23T08:41:01.835Z,25.54
2022-08-23T08:42:04.326Z,25.48
2022-08-23T08:43:00.001Z,25.38
2022-08-23T08:43:58.901Z,25.31
2022-08-23T08:44:58.777Z,25.33
2022-08-23T08:45:59.206Z,25.46
2022-08-23T08:46:58.768Z,25.58
2022-08-23T08:47:58.718Z,25.69
2022-08-23T08:48:58.750Z,25.70
2022-08-23T08:49:58.778Z,25.72
2022-08-23T08:50:58.741Z,25.77
2022-08-23T08:51:58.751Z,25.78
2022-08-23T08:52:58.711Z,25.84
2022-08-23T08:53:58.702Z,25.85
2022-08-23T08:54:58.621Z,25.88
2022-08-23T08:55:59.072Z,25.93
2022-08-23T08:56:58.603Z,25.98
2022-08-23T08:57:58.656Z,25.95
2022-08-23T08:58:58.614Z,25.90
2022-08-23T09:00:01.557Z,25.88
2022-08-23T09:01:01.563Z,25.88
2022-08-23T09:01:58.767Z,25.80
2022-08-23T09:02:58.726Z,25.81
2022-08-23T09:03:58.579Z,25.81
2022-08-23T09:05:19.657Z,25.83
2022-08-23T09:05:58.477Z,25.78
2022-08-23T09:06:59.000Z,25.77
2022-08-23T09:07:58.603Z,25.75
2022-08-23T09:08:58.502Z,25.48
2022-08-23T09:09:58.440Z,25.35
2022-08-23T09:10:58.682Z,25.29
2022-08-23T09:11:58.414Z,25.31
2022-08-23T09:12:58.373Z,25.41
2022-08-23T09:13:58.473Z,25.55
2022-08-23T09:14:58.377Z,25.62
2022-08-23T09:15:58.401Z,25.72
2022-08-23T09:16:58.325Z,25.84
2022-08-23T09:17:58.410Z,25.98
2022-08-23T09:18:58.318Z,26.09
2022-08-23T09:20:01.325Z,26.16
2022-08-23T09:21:01.298Z,26.21
2022-08-23T09:21:58.288Z,26.19
2022-08-23T09:22:58.242Z,26.19
2022-08-23T09:24:00.944Z,26.23
2022-08-23T09:24:58.252Z,26.28
2022-08-23T09:26:02.690Z,26.23
2022-08-23T09:26:59.179Z,26.28
2022-08-23T09:27:58.280Z,26.31
2022-08-23T09:28:58.150Z,26.33
2022-08-23T09:29:58.151Z,26.25
2022-08-23T09:30:58.206Z,26.29
2022-08-23T09:31:58.298Z,26.43
2022-08-23T09:32:58.092Z,26.51
2022-08-23T09:33:58.092Z,26.59
2022-08-23T09:34:58.072Z,26.66
2022-08-23T09:35:58.063Z,26.74
2022-08-23T09:36:58.045Z,26.78
2022-08-23T09:37:58.113Z,26.83
2022-08-23T09:38:58.123Z,26.77
2022-08-23T09:40:01.023Z,26.84
2022-08-23T09:41:01.014Z,26.88
2022-08-23T09:41:57.988Z,26.78
2022-08-23T09:42:57.967Z,26.88
2022-08-23T09:43:57.949Z,26.90
2022-08-23T09:44:58.000Z,26.89
2022-08-23T09:45:57.984Z,26.92
2022-08-23T09:46:57.910Z,26.97
2022-08-23T09:47:57.940Z,27.02
2022-08-23T09:48:57.949Z,26.95
2022-08-23T09:49:57.870Z,26.90
2022-08-23T09:50:57.863Z,26.90
2022-08-23T09:51:57.853Z,26.95
2022-08-23T09:52:57.892Z,26.97
2022-08-23T09:53:57.815Z,26.95
2022-08-23T09:54:57.844Z,27.00
2022-08-23T09:55:57.791Z,26.99
2022-08-23T09:56:57.844Z,27.05
2022-08-23T09:57:57.766Z,27.10
2022-08-23T09:58:57.786Z,27.11
2022-08-23T10:00:00.793Z,27.20
2022-08-23T10:01:00.747Z,27.10
2022-08-23T10:01:57.851Z,27.10
2022-08-23T10:02:57.861Z,27.20
2022-08-23T10:03:57.679Z,27.32
2022-08-23T10:04:57.749Z,27.44
2022-08-23T10:05:57.659Z,27.49
2022-08-23T10:06:57.639Z,27.59
2022-08-23T10:07:57.622Z,27.71
2022-08-23T10:08:57.611Z,27.71
2022-08-23T10:09:57.604Z,27.71
2022-08-23T10:10:57.611Z,27.74
2022-08-23T10:11:57.652Z,27.73
2022-08-23T10:12:57.581Z,27.74
2022-08-23T10:13:57.595Z,27.73
2022-08-23T10:14:57.613Z,27.78
2022-08-23T10:15:57.602Z,27.82
2022-08-23T10:16:57.517Z,27.75
2022-08-23T10:17:57.575Z,27.75
2022-08-23T10:18:57.476Z,27.64
2022-08-23T10:20:00.465Z,27.67
2022-08-23T10:21:00.536Z,27.70
2022-08-23T10:21:57.438Z,27.68
2022-08-23T10:22:58.889Z,27.73
2022-08-23T10:23:57.418Z,27.83
2022-08-23T10:24:57.409Z,27.90
2022-08-23T10:25:57.379Z,27.98
2022-08-23T10:26:57.409Z,28.00
2022-08-23T10:27:58.165Z,28.04
2022-08-23T10:28:57.382Z,28.00
2022-08-23T10:29:57.333Z,28.01
2022-08-23T10:30:57.355Z,28.00
2022-08-23T10:31:59.307Z,28.07
2022-08-23T10:32:58.054Z,28.14
2022-08-23T10:33:57.324Z,28.17
2022-08-23T10:34:57.267Z,28.22
2022-08-23T10:35:57.246Z,28.23
2022-08-23T10:36:57.253Z,28.26
2022-08-23T10:37:58.053Z,28.29
2022-08-23T10:38:57.236Z,28.35
2022-08-23T10:40:03.681Z,28.25
2022-08-23T10:41:00.204Z,28.25
2022-08-23T10:42:04.710Z,28.20
2022-08-23T10:42:58.631Z,28.27
2022-08-23T10:43:57.141Z,28.33
2022-08-23T10:44:57.141Z,28.38
2022-08-23T10:46:00.380Z,28.37
2022-08-23T10:46:57.112Z,28.33
2022-08-23T10:47:57.945Z,28.38
2022-08-23T10:48:57.084Z,28.41
2022-08-23T10:49:57.061Z,28.45
2022-08-23T10:50:57.051Z,28.39
2022-08-23T10:51:57.132Z,28.44
2022-08-23T10:52:57.786Z,28.47
2022-08-23T10:53:57.029Z,28.49
2022-08-23T10:54:56.997Z,28.59
2022-08-23T10:55:56.984Z,28.70
2022-08-23T10:56:56.989Z,28.81
2022-08-23T10:57:57.732Z,28.93
2022-08-23T10:58:56.950Z,29.02
2022-08-23T10:59:59.962Z,29.02
2022-08-23T11:00:59.933Z,29.13
2022-08-23T11:01:56.960Z,29.20
2022-08-23T11:02:57.689Z,29.26
2022-08-23T11:03:56.922Z,29.29
2022-08-23T11:04:56.870Z,29.17
2022-08-23T11:05:56.873Z,29.08
2022-08-23T11:06:56.834Z,28.96
2022-08-23T11:07:57.638Z,28.88
2022-08-23T11:08:56.814Z,28.89
2022-08-23T11:09:56.815Z,28.94
2022-08-23T11:10:57.135Z,28.97
2022-08-23T11:11:56.768Z,29.01
2022-08-23T11:12:57.524Z,28.93
2022-08-23T11:13:56.757Z,29.04
2022-08-23T11:14:56.792Z,29.07
2022-08-23T11:15:56.766Z,29.13
2022-08-23T11:16:56.700Z,28.97
2022-08-23T11:17:56.694Z,28.88
2022-08-23T11:18:56.691Z,28.98
2022-08-23T11:19:59.710Z,28.98
2022-08-23T11:20:59.660Z,29.07
2022-08-23T11:21:56.662Z,28.96
2022-08-23T11:22:57.375Z,28.88
2022-08-23T11:23:56.625Z,28.96
2022-08-23T11:24:56.593Z,28.91
2022-08-23T11:25:56.612Z,28.89
2022-08-23T11:26:56.593Z,28.78
2022-08-23T11:27:57.034Z,28.67
2022-08-23T11:28:56.538Z,28.81
2022-08-23T11:29:56.518Z,28.93
2022-08-23T11:30:56.531Z,29.02
2022-08-23T11:31:56.528Z,29.02
2022-08-23T11:32:56.478Z,29.12
2022-08-23T11:33:56.472Z,29.14
2022-08-23T11:34:56.451Z,29.16
2022-08-23T11:35:56.435Z,29.14
2022-08-23T11:36:56.423Z,29.20
2022-08-23T11:37:56.478Z,29.20
2022-08-23T11:38:56.401Z,29.24
2022-08-23T11:39:59.484Z,29.36
2022-08-23T11:40:59.384Z,29.49
2022-08-23T11:41:56.363Z,29.56
2022-08-23T11:42:56.387Z,29.60
2022-08-23T11:43:56.333Z,29.66
2022-08-23T11:44:56.317Z,29.72
2022-08-23T11:45:56.374Z,29.75
2022-08-23T11:46:56.295Z,29.71
2022-08-23T11:47:56.344Z,29.68
2022-08-23T11:48:56.288Z,29.84
2022-08-23T11:49:56.256Z,29.90
2022-08-23T11:50:58.227Z,29.95
2022-08-23T11:51:56.238Z,30.03
2022-08-23T11:52:56.210Z,30.09
2022-08-23T11:53:56.251Z,30.16
2022-08-23T11:54:56.182Z,30.21
2022-08-23T11:55:56.171Z,30.24
2022-08-23T11:56:56.163Z,30.21
2022-08-23T11:57:56.172Z,30.18
2022-08-23T11:58:56.143Z,30.27
2022-08-23T11:59:59.155Z,30.15
2022-08-23T12:00:59.133Z,30.03
2022-08-23T12:01:56.105Z,30.03
2022-08-23T12:02:56.174Z,30.10
2022-08-23T12:03:56.256Z,30.15
2022-08-23T12:04:56.066Z,30.12
2022-08-23T12:05:56.078Z,30.13
2022-08-23T12:06:56.060Z,30.13
2022-08-23T12:07:56.113Z,30.16
2022-08-23T12:08:56.008Z,30.02
2022-08-23T12:09:56.035Z,29.95
2022-08-23T12:10:55.990Z,29.98
2022-08-23T12:11:56.000Z,29.95
2022-08-23T12:12:55.960Z,30.02
2022-08-23T12:13:55.941Z,30.10
2022-08-23T12:14:55.934Z,30.12
2022-08-23T12:15:55.957Z,30.16
2022-08-23T12:16:56.797Z,30.00
2022-08-23T12:17:55.998Z,30.03
2022-08-23T12:18:55.886Z,30.10
2022-08-23T12:19:58.865Z,30.21
2022-08-23T12:20:58.876Z,30.34
2022-08-23T12:21:55.835Z,30.40
2022-08-23T12:22:55.877Z,30.48
2022-08-23T12:23:55.818Z,30.54
2022-08-23T12:24:55.808Z,30.32
2022-08-23T12:25:55.789Z,30.24
2022-08-23T12:26:55.779Z,30.19
2022-08-23T12:27:55.837Z,30.18
2022-08-23T12:28:55.780Z,30.24
2022-08-23T12:29:55.741Z,30.19
2022-08-23T12:30:55.787Z,30.27
2022-08-23T12:31:55.716Z,30.32
2022-08-23T12:32:55.742Z,30.39
2022-08-23T12:33:55.696Z,30.48
2022-08-23T12:34:55.673Z,30.51
2022-08-23T12:35:55.663Z,30.53
2022-08-23T12:36:55.667Z,30.61
2022-08-23T12:37:55.737Z,30.59
2022-08-23T12:38:55.627Z,30.57
2022-08-23T12:39:58.677Z,30.57
2022-08-23T12:40:58.660Z,30.62
2022-08-23T12:41:55.582Z,30.62
2022-08-23T12:42:55.583Z,30.65
2022-08-23T12:43:55.551Z,30.57
2022-08-23T12:44:55.540Z,30.62
2022-08-23T12:45:55.554Z,30.66
2022-08-23T12:46:55.574Z,30.72
2022-08-23T12:47:55.504Z,30.73
2022-08-23T12:48:55.483Z,30.62
2022-08-23T12:49:55.464Z,30.40
2022-08-23T12:50:55.455Z,30.32
2022-08-23T12:51:55.441Z,30.09
2022-08-23T12:52:55.509Z,29.94